sensor_id;sensor_type;location;lat;lon;timestamp;P1;durP1;ratioP1;P2;durP2;ratioP2
58071;SDS011;60383;46.626;18.866;2023-04-24T00:02:22;7.15;;;4.97;;
58071;SDS011;60383;46.626;18.866;2023-04-24T00:04:49;5.93;;;4.70;;
58071;SDS011;60383;46.626;18.866;2023-04-24T00:07:14;7.32;;;4.88;;
58071;SDS011;60383;46.626;18.866;2023-04-24T00:12:10;5.55;;;4.57;;
58071;SDS011;60383;46.626;18.866;2023-04-24T00:14:36;4.85;;;4.35;;
58071;SDS011;60383;46.626;18.866;2023-04-24T00:17:01;6.47;;;4.32;;
58071;SDS011;60383;46.626;18.866;2023-04-24T00:19:27;5.53;;;4.55;;
58071;SDS011;60383;46.626;18.866;2023-04-24T00:21:53;5.22;;;4.57;;
58071;SDS011;60383;46.626;18.866;2023-04-24T00:24:20;5.07;;;4.53;;
58071;SDS011;60383;46.626;18.866;2023-04-24T00:26:45;5.53;;;4.63;;
58071;SDS011;60383;46.626;18.866;2023-04-24T00:29:11;5.72;;;4.70;;
58071;SDS011;60383;46.626;18.866;2023-04-24T00:31:37;6.03;;;4.93;;
58071;SDS011;60383;46.626;18.866;2023-04-24T00:34:02;7.22;;;4.80;;
58071;SDS011;60383;46.626;18.866;2023-04-24T00:36:28;6.82;;;5.22;;
58071;SDS011;60383;46.626;18.866;2023-04-24T00:38:55;5.53;;;4.60;;
58071;SDS011;60383;46.626;18.866;2023-04-24T00:41:21;6.85;;;4.20;;
58071;SDS011;60383;46.626;18.866;2023-04-24T00:43:47;7.07;;;4.47;;
58071;SDS011;60383;46.626;18.866;2023-04-24T00:46:13;5.75;;;4.53;;
58071;SDS011;60383;46.626;18.866;2023-04-24T00:48:39;6.80;;;4.93;;
58071;SDS011;60383;46.626;18.866;2023-04-24T00:51:05;5.88;;;4.68;;
58071;SDS011;60383;46.626;18.866;2023-04-24T00:53:31;6.10;;;4.43;;
58071;SDS011;60383;46.626;18.866;2023-04-24T00:55:56;5.45;;;4.40;;
58071;SDS011;60383;46.626;18.866;2023-04-24T00:58:22;7.47;;;4.70;;
58071;SDS011;60383;46.626;18.866;2023-04-24T01:00:49;6.47;;;4.43;;
58071;SDS011;60383;46.626;18.866;2023-04-24T01:03:19;7.00;;;4.63;;
58071;SDS011;60383;46.626;18.866;2023-04-24T01:05:46;5.50;;;4.15;;
58071;SDS011;60383;46.626;18.866;2023-04-24T01:08:12;6.28;;;4.30;;
58071;SDS011;60383;46.626;18.866;2023-04-24T01:10:38;8.35;;;4.35;;
58071;SDS011;60383;46.626;18.866;2023-04-24T01:13:06;5.20;;;3.92;;
58071;SDS011;60383;46.626;18.866;2023-04-24T01:15:33;6.45;;;4.32;;
58071;SDS011;60383;46.626;18.866;2023-04-24T01:17:59;5.82;;;4.30;;
58071;SDS011;60383;46.626;18.866;2023-04-24T01:20:25;5.65;;;4.30;;
58071;SDS011;60383;46.626;18.866;2023-04-24T01:22:51;6.53;;;4.32;;
58071;SDS011;60383;46.626;18.866;2023-04-24T01:25:18;6.07;;;4.82;;
58071;SDS011;60383;46.626;18.866;2023-04-24T01:27:43;6.88;;;4.60;;
58071;SDS011;60383;46.626;18.866;2023-04-24T01:30:09;5.45;;;4.07;;
58071;SDS011;60383;46.626;18.866;2023-04-24T01:32:35;5.75;;;4.80;;
58071;SDS011;60383;46.626;18.866;2023-04-24T01:35:02;6.10;;;4.03;;
58071;SDS011;60383;46.626;18.866;2023-04-24T01:37:28;6.40;;;4.60;;
58071;SDS011;60383;46.626;18.866;2023-04-24T01:39:53;5.97;;;4.10;;
58071;SDS011;60383;46.626;18.866;2023-04-24T01:42:19;6.10;;;4.47;;
58071;SDS011;60383;46.626;18.866;2023-04-24T01:44:44;6.07;;;4.70;;
58071;SDS011;60383;46.626;18.866;2023-04-24T01:47:10;7.05;;;5.15;;
58071;SDS011;60383;46.626;18.866;2023-04-24T01:49:37;5.95;;;4.15;;
58071;SDS011;60383;46.626;18.866;2023-04-24T01:52:03;7.60;;;4.47;;
58071;SDS011;60383;46.626;18.866;2023-04-24T01:54:29;7.53;;;4.65;;
58071;SDS011;60383;46.626;18.866;2023-04-24T01:56:54;7.45;;;4.93;;
58071;SDS011;60383;46.626;18.866;2023-04-24T01:59:20;7.55;;;4.88;;
58071;SDS011;60383;46.626;18.866;2023-04-24T02:01:46;6.97;;;4.68;;
58071;SDS011;60383;46.626;18.866;2023-04-24T02:04:12;6.50;;;4.68;;
58071;SDS011;60383;46.626;18.866;2023-04-24T02:06:38;5.82;;;4.50;;
58071;SDS011;60383;46.626;18.866;2023-04-24T02:09:04;7.45;;;5.25;;
58071;SDS011;60383;46.626;18.866;2023-04-24T02:11:30;5.95;;;4.72;;
58071;SDS011;60383;46.626;18.866;2023-04-24T02:13:55;6.75;;;5.13;;
58071;SDS011;60383;46.626;18.866;2023-04-24T02:16:21;5.97;;;4.57;;
58071;SDS011;60383;46.626;18.866;2023-04-24T02:18:46;7.00;;;4.88;;
58071;SDS011;60383;46.626;18.866;2023-04-24T02:21:12;8.05;;;4.90;;
58071;SDS011;60383;46.626;18.866;2023-04-24T02:23:37;5.90;;;4.80;;
58071;SDS011;60383;46.626;18.866;2023-04-24T02:26:03;5.78;;;4.53;;
58071;SDS011;60383;46.626;18.866;2023-04-24T02:28:28;7.18;;;4.85;;
58071;SDS011;60383;46.626;18.866;2023-04-24T02:30:54;5.85;;;4.78;;
58071;SDS011;60383;46.626;18.866;2023-04-24T02:33:20;9.02;;;5.25;;
58071;SDS011;60383;46.626;18.866;2023-04-24T02:35:45;5.53;;;4.90;;
58071;SDS011;60383;46.626;18.866;2023-04-24T02:38:10;6.43;;;4.85;;
58071;SDS011;60383;46.626;18.866;2023-04-24T02:40:36;6.55;;;4.72;;
58071;SDS011;60383;46.626;18.866;2023-04-24T02:43:01;9.00;;;4.75;;
58071;SDS011;60383;46.626;18.866;2023-04-24T02:45:27;5.45;;;4.75;;
58071;SDS011;60383;46.626;18.866;2023-04-24T02:47:53;7.28;;;4.88;;
58071;SDS011;60383;46.626;18.866;2023-04-24T02:50:18;6.18;;;4.80;;
58071;SDS011;60383;46.626;18.866;2023-04-24T02:52:43;5.72;;;4.43;;
58071;SDS011;60383;46.626;18.866;2023-04-24T02:55:09;7.05;;;5.05;;
58071;SDS011;60383;46.626;18.866;2023-04-24T02:57:35;6.93;;;4.50;;
58071;SDS011;60383;46.626;18.866;2023-04-24T03:00:00;6.35;;;4.70;;
58071;SDS011;60383;46.626;18.866;2023-04-24T03:02:26;5.97;;;4.75;;
58071;SDS011;60383;46.626;18.866;2023-04-24T03:04:51;6.72;;;4.65;;
58071;SDS011;60383;46.626;18.866;2023-04-24T03:07:16;5.97;;;4.72;;
58071;SDS011;60383;46.626;18.866;2023-04-24T03:09:45;6.40;;;5.15;;
58071;SDS011;60383;46.626;18.866;2023-04-24T03:12:11;7.20;;;4.72;;
58071;SDS011;60383;46.626;18.866;2023-04-24T03:14:36;7.03;;;5.20;;
58071;SDS011;60383;46.626;18.866;2023-04-24T03:17:02;6.30;;;4.82;;
58071;SDS011;60383;46.626;18.866;2023-04-24T03:19:27;6.90;;;5.28;;
58071;SDS011;60383;46.626;18.866;2023-04-24T03:21:53;6.88;;;5.38;;
58071;SDS011;60383;46.626;18.866;2023-04-24T03:24:18;6.68;;;5.20;;
58071;SDS011;60383;46.626;18.866;2023-04-24T03:26:45;7.55;;;5.28;;
58071;SDS011;60383;46.626;18.866;2023-04-24T03:29:11;5.82;;;5.18;;
58071;SDS011;60383;46.626;18.866;2023-04-24T03:31:36;7.57;;;4.93;;
58071;SDS011;60383;46.626;18.866;2023-04-24T03:34:01;6.25;;;4.78;;
58071;SDS011;60383;46.626;18.866;2023-04-24T03:36:27;7.13;;;5.10;;
58071;SDS011;60383;46.626;18.866;2023-04-24T03:38:52;8.43;;;5.43;;
58071;SDS011;60383;46.626;18.866;2023-04-24T03:41:18;6.90;;;4.95;;
58071;SDS011;60383;46.626;18.866;2023-04-24T03:43:44;6.53;;;4.80;;
58071;SDS011;60383;46.626;18.866;2023-04-24T03:46:09;7.10;;;5.07;;
58071;SDS011;60383;46.626;18.866;2023-04-24T03:48:35;8.65;;;5.35;;
58071;SDS011;60383;46.626;18.866;2023-04-24T03:51:00;6.88;;;4.72;;
58071;SDS011;60383;46.626;18.866;2023-04-24T03:53:26;6.40;;;5.22;;
58071;SDS011;60383;46.626;18.866;2023-04-24T03:55:52;9.50;;;5.75;;
58071;SDS011;60383;46.626;18.866;2023-04-24T03:58:18;7.63;;;5.13;;
58071;SDS011;60383;46.626;18.866;2023-04-24T04:00:43;6.43;;;5.10;;
58071;SDS011;60383;46.626;18.866;2023-04-24T04:03:09;8.45;;;5.20;;
58071;SDS011;60383;46.626;18.866;2023-04-24T04:05:35;8.30;;;5.40;;
58071;SDS011;60383;46.626;18.866;2023-04-24T04:08:00;6.55;;;5.32;;
58071;SDS011;60383;46.626;18.866;2023-04-24T04:10:25;7.05;;;5.18;;
58071;SDS011;60383;46.626;18.866;2023-04-24T04:12:51;7.38;;;5.25;;
58071;SDS011;60383;46.626;18.866;2023-04-24T04:15:16;6.63;;;5.43;;
58071;SDS011;60383;46.626;18.866;2023-04-24T04:17:42;7.03;;;5.45;;
58071;SDS011;60383;46.626;18.866;2023-04-24T04:20:07;6.35;;;5.35;;
58071;SDS011;60383;46.626;18.866;2023-04-24T04:22:36;7.50;;;5.55;;
58071;SDS011;60383;46.626;18.866;2023-04-24T04:25:02;7.55;;;5.35;;
58071;SDS011;60383;46.626;18.866;2023-04-24T04:27:29;8.18;;;5.63;;
58071;SDS011;60383;46.626;18.866;2023-04-24T04:29:59;8.38;;;5.60;;
58071;SDS011;60383;46.626;18.866;2023-04-24T04:32:33;7.28;;;5.10;;
58071;SDS011;60383;46.626;18.866;2023-04-24T04:35:02;7.25;;;5.57;;
58071;SDS011;60383;46.626;18.866;2023-04-24T04:37:29;6.30;;;5.07;;
58071;SDS011;60383;46.626;18.866;2023-04-24T04:40:01;7.68;;;5.75;;
58071;SDS011;60383;46.626;18.866;2023-04-24T04:42:31;6.47;;;5.00;;
58071;SDS011;60383;46.626;18.866;2023-04-24T04:44:59;7.95;;;5.90;;
58071;SDS011;60383;46.626;18.866;2023-04-24T04:47:25;6.30;;;5.20;;
58071;SDS011;60383;46.626;18.866;2023-04-24T04:49:52;9.05;;;6.13;;
58071;SDS011;60383;46.626;18.866;2023-04-24T04:52:17;8.98;;;5.78;;
58071;SDS011;60383;46.626;18.866;2023-04-24T04:54:43;8.13;;;5.22;;
58071;SDS011;60383;46.626;18.866;2023-04-24T04:57:09;8.25;;;5.30;;
58071;SDS011;60383;46.626;18.866;2023-04-24T04:59:35;6.07;;;5.22;;
58071;SDS011;60383;46.626;18.866;2023-04-24T05:02:02;6.25;;;5.03;;
58071;SDS011;60383;46.626;18.866;2023-04-24T05:04:27;8.15;;;5.43;;
58071;SDS011;60383;46.626;18.866;2023-04-24T05:06:53;6.90;;;5.07;;
58071;SDS011;60383;46.626;18.866;2023-04-24T05:09:18;5.40;;;4.63;;
58071;SDS011;60383;46.626;18.866;2023-04-24T05:11:44;7.43;;;5.25;;
58071;SDS011;60383;46.626;18.866;2023-04-24T05:14:09;8.48;;;5.75;;
58071;SDS011;60383;46.626;18.866;2023-04-24T05:16:35;8.48;;;5.18;;
58071;SDS011;60383;46.626;18.866;2023-04-24T05:19:02;7.95;;;5.53;;
58071;SDS011;60383;46.626;18.866;2023-04-24T05:21:27;7.68;;;5.57;;
58071;SDS011;60383;46.626;18.866;2023-04-24T05:23:53;8.50;;;5.13;;
58071;SDS011;60383;46.626;18.866;2023-04-24T05:26:18;6.57;;;5.53;;
58071;SDS011;60383;46.626;18.866;2023-04-24T05:28:44;6.93;;;5.60;;
58071;SDS011;60383;46.626;18.866;2023-04-24T05:31:09;8.73;;;5.72;;
58071;SDS011;60383;46.626;18.866;2023-04-24T05:33:35;7.10;;;5.43;;
58071;SDS011;60383;46.626;18.866;2023-04-24T05:36:00;6.95;;;5.70;;
58071;SDS011;60383;46.626;18.866;2023-04-24T05:38:26;6.85;;;5.47;;
58071;SDS011;60383;46.626;18.866;2023-04-24T05:40:51;7.60;;;5.57;;
58071;SDS011;60383;46.626;18.866;2023-04-24T05:43:17;7.95;;;5.60;;
58071;SDS011;60383;46.626;18.866;2023-04-24T05:45:42;6.68;;;5.72;;
58071;SDS011;60383;46.626;18.866;2023-04-24T05:48:07;7.53;;;5.25;;
58071;SDS011;60383;46.626;18.866;2023-04-24T05:50:33;6.50;;;5.45;;
58071;SDS011;60383;46.626;18.866;2023-04-24T05:52:58;8.13;;;5.68;;
58071;SDS011;60383;46.626;18.866;2023-04-24T05:55:24;7.03;;;5.32;;
58071;SDS011;60383;46.626;18.866;2023-04-24T05:57:50;8.27;;;6.43;;
58071;SDS011;60383;46.626;18.866;2023-04-24T06:00:16;10.10;;;5.57;;
58071;SDS011;60383;46.626;18.866;2023-04-24T06:02:44;8.75;;;5.78;;
58071;SDS011;60383;46.626;18.866;2023-04-24T06:05:10;8.07;;;5.70;;
58071;SDS011;60383;46.626;18.866;2023-04-24T06:07:36;8.55;;;5.72;;
58071;SDS011;60383;46.626;18.866;2023-04-24T06:10:01;9.65;;;6.07;;
58071;SDS011;60383;46.626;18.866;2023-04-24T06:12:27;8.73;;;6.00;;
58071;SDS011;60383;46.626;18.866;2023-04-24T06:14:53;8.43;;;5.72;;
58071;SDS011;60383;46.626;18.866;2023-04-24T06:17:20;7.95;;;6.32;;
58071;SDS011;60383;46.626;18.866;2023-04-24T06:19:45;8.40;;;6.20;;
58071;SDS011;60383;46.626;18.866;2023-04-24T06:22:11;8.57;;;6.28;;
58071;SDS011;60383;46.626;18.866;2023-04-24T06:24:36;9.02;;;6.70;;
58071;SDS011;60383;46.626;18.866;2023-04-24T06:27:02;9.35;;;6.50;;
58071;SDS011;60383;46.626;18.866;2023-04-24T06:29:27;9.63;;;6.55;;
58071;SDS011;60383;46.626;18.866;2023-04-24T06:31:53;10.57;;;6.88;;
58071;SDS011;60383;46.626;18.866;2023-04-24T06:34:18;10.77;;;6.75;;
58071;SDS011;60383;46.626;18.866;2023-04-24T06:36:44;9.05;;;6.80;;
58071;SDS011;60383;46.626;18.866;2023-04-24T06:39:10;9.45;;;6.40;;
58071;SDS011;60383;46.626;18.866;2023-04-24T06:41:35;10.05;;;6.60;;
58071;SDS011;60383;46.626;18.866;2023-04-24T06:44:01;9.05;;;6.53;;
58071;SDS011;60383;46.626;18.866;2023-04-24T06:46:26;9.57;;;7.03;;
58071;SDS011;60383;46.626;18.866;2023-04-24T06:48:55;8.88;;;6.78;;
58071;SDS011;60383;46.626;18.866;2023-04-24T06:51:24;7.60;;;6.15;;
58071;SDS011;60383;46.626;18.866;2023-04-24T06:53:51;7.85;;;6.03;;
58071;SDS011;60383;46.626;18.866;2023-04-24T06:56:17;11.77;;;7.50;;
58071;SDS011;60383;46.626;18.866;2023-04-24T06:58:42;10.82;;;7.38;;
58071;SDS011;60383;46.626;18.866;2023-04-24T07:01:08;10.15;;;7.30;;
58071;SDS011;60383;46.626;18.866;2023-04-24T07:03:34;10.60;;;7.53;;
58071;SDS011;60383;46.626;18.866;2023-04-24T07:06:00;10.82;;;7.25;;
58071;SDS011;60383;46.626;18.866;2023-04-24T07:08:25;10.55;;;7.25;;
58071;SDS011;60383;46.626;18.866;2023-04-24T07:10:51;9.95;;;7.30;;
58071;SDS011;60383;46.626;18.866;2023-04-24T07:13:16;10.95;;;7.65;;
58071;SDS011;60383;46.626;18.866;2023-04-24T07:15:42;9.38;;;7.10;;
58071;SDS011;60383;46.626;18.866;2023-04-24T07:18:08;9.55;;;6.60;;
58071;SDS011;60383;46.626;18.866;2023-04-24T07:20:34;9.43;;;7.60;;
58071;SDS011;60383;46.626;18.866;2023-04-24T07:22:59;11.30;;;7.88;;
58071;SDS011;60383;46.626;18.866;2023-04-24T07:25:25;10.75;;;7.88;;
58071;SDS011;60383;46.626;18.866;2023-04-24T07:27:50;9.70;;;7.40;;
58071;SDS011;60383;46.626;18.866;2023-04-24T07:30:16;10.77;;;7.72;;
58071;SDS011;60383;46.626;18.866;2023-04-24T07:32:41;9.68;;;7.10;;
58071;SDS011;60383;46.626;18.866;2023-04-24T07:35:07;10.05;;;7.20;;
58071;SDS011;60383;46.626;18.866;2023-04-24T07:37:34;10.30;;;7.07;;
58071;SDS011;60383;46.626;18.866;2023-04-24T07:40:00;11.15;;;7.55;;
58071;SDS011;60383;46.626;18.866;2023-04-24T07:42:26;11.55;;;7.75;;
58071;SDS011;60383;46.626;18.866;2023-04-24T07:44:51;11.23;;;7.70;;
58071;SDS011;60383;46.626;18.866;2023-04-24T07:47:17;9.98;;;6.90;;
58071;SDS011;60383;46.626;18.866;2023-04-24T07:49:42;11.45;;;7.72;;
58071;SDS011;60383;46.626;18.866;2023-04-24T07:52:08;8.68;;;6.80;;
58071;SDS011;60383;46.626;18.866;2023-04-24T07:54:33;11.23;;;8.10;;
58071;SDS011;60383;46.626;18.866;2023-04-24T07:56:59;11.23;;;7.25;;
58071;SDS011;60383;46.626;18.866;2023-04-24T07:59:25;11.10;;;7.30;;
58071;SDS011;60383;46.626;18.866;2023-04-24T08:01:51;11.77;;;7.63;;
58071;SDS011;60383;46.626;18.866;2023-04-24T08:04:17;11.73;;;7.18;;
58071;SDS011;60383;46.626;18.866;2023-04-24T08:06:43;10.20;;;7.57;;
58071;SDS011;60383;46.626;18.866;2023-04-24T08:09:08;11.30;;;7.78;;
58071;SDS011;60383;46.626;18.866;2023-04-24T08:11:34;11.25;;;7.30;;
58071;SDS011;60383;46.626;18.866;2023-04-24T08:14:00;10.27;;;7.47;;
58071;SDS011;60383;46.626;18.866;2023-04-24T08:16:25;10.90;;;8.43;;
58071;SDS011;60383;46.626;18.866;2023-04-24T08:18:52;9.80;;;7.47;;
58071;SDS011;60383;46.626;18.866;2023-04-24T08:21:18;9.57;;;7.10;;
58071;SDS011;60383;46.626;18.866;2023-04-24T08:23:45;8.70;;;6.57;;
58071;SDS011;60383;46.626;18.866;2023-04-24T08:26:11;9.55;;;6.75;;
58071;SDS011;60383;46.626;18.866;2023-04-24T08:28:37;9.52;;;7.00;;
58071;SDS011;60383;46.626;18.866;2023-04-24T08:31:03;10.07;;;7.32;;
58071;SDS011;60383;46.626;18.866;2023-04-24T08:33:29;11.88;;;7.97;;
58071;SDS011;60383;46.626;18.866;2023-04-24T08:36:03;10.70;;;7.85;;
58071;SDS011;60383;46.626;18.866;2023-04-24T08:38:29;9.95;;;8.25;;
58071;SDS011;60383;46.626;18.866;2023-04-24T08:40:56;11.80;;;7.82;;
58071;SDS011;60383;46.626;18.866;2023-04-24T08:43:23;10.38;;;7.18;;
58071;SDS011;60383;46.626;18.866;2023-04-24T08:45:49;11.60;;;8.40;;
58071;SDS011;60383;46.626;18.866;2023-04-24T08:48:16;11.35;;;8.25;;
58071;SDS011;60383;46.626;18.866;2023-04-24T08:50:42;10.48;;;7.50;;
58071;SDS011;60383;46.626;18.866;2023-04-24T08:53:09;11.38;;;7.35;;
58071;SDS011;60383;46.626;18.866;2023-04-24T08:55:36;11.13;;;6.65;;
58071;SDS011;60383;46.626;18.866;2023-04-24T08:58:02;10.50;;;6.75;;
58071;SDS011;60383;46.626;18.866;2023-04-24T09:00:29;8.35;;;5.63;;
58071;SDS011;60383;46.626;18.866;2023-04-24T09:02:55;9.32;;;6.22;;
58071;SDS011;60383;46.626;18.866;2023-04-24T09:05:21;7.78;;;5.75;;
58071;SDS011;60383;46.626;18.866;2023-04-24T09:07:55;8.30;;;5.97;;
58071;SDS011;60383;46.626;18.866;2023-04-24T09:19:40;5.07;;;3.90;;
58071;SDS011;60383;46.626;18.866;2023-04-24T09:22:06;8.13;;;4.70;;
58071;SDS011;60383;46.626;18.866;2023-04-24T09:24:33;10.25;;;4.35;;
58071;SDS011;60383;46.626;18.866;2023-04-24T09:26:59;6.45;;;4.88;;
58071;SDS011;60383;46.626;18.866;2023-04-24T09:29:26;5.00;;;4.07;;
58071;SDS011;60383;46.626;18.866;2023-04-24T09:31:52;7.07;;;4.25;;
58071;SDS011;60383;46.626;18.866;2023-04-24T09:34:24;6.13;;;4.45;;
58071;SDS011;60383;46.626;18.866;2023-04-24T09:36:51;6.75;;;4.57;;
58071;SDS011;60383;46.626;18.866;2023-04-24T09:39:17;6.53;;;4.20;;
58071;SDS011;60383;46.626;18.866;2023-04-24T09:42:03;7.40;;;4.60;;
58071;SDS011;60383;46.626;18.866;2023-04-24T09:44:28;4.60;;;3.17;;
58071;SDS011;60383;46.626;18.866;2023-04-24T09:46:55;6.05;;;3.58;;
58071;SDS011;60383;46.626;18.866;2023-04-24T09:49:26;4.70;;;4.18;;
58071;SDS011;60383;46.626;18.866;2023-04-24T09:52:02;5.10;;;3.17;;
58071;SDS011;60383;46.626;18.866;2023-04-24T09:54:31;4.43;;;3.53;;
58071;SDS011;60383;46.626;18.866;2023-04-24T09:56:58;5.15;;;3.80;;
58071;SDS011;60383;46.626;18.866;2023-04-24T09:59:25;4.78;;;3.45;;
58071;SDS011;60383;46.626;18.866;2023-04-24T10:01:50;5.95;;;4.20;;
58071;SDS011;60383;46.626;18.866;2023-04-24T10:04:20;5.40;;;3.30;;
58071;SDS011;60383;46.626;18.866;2023-04-24T10:06:49;4.07;;;3.33;;
58071;SDS011;60383;46.626;18.866;2023-04-24T10:09:16;3.85;;;2.88;;
58071;SDS011;60383;46.626;18.866;2023-04-24T10:11:44;3.15;;;2.63;;
58071;SDS011;60383;46.626;18.866;2023-04-24T10:14:16;2.13;;;1.70;;
58071;SDS011;60383;46.626;18.866;2023-04-24T10:16:44;2.78;;;2.08;;
58071;SDS011;60383;46.626;18.866;2023-04-24T10:19:12;1.33;;;1.23;;
58071;SDS011;60383;46.626;18.866;2023-04-24T10:21:38;1.15;;;1.02;;
58071;SDS011;60383;46.626;18.866;2023-04-24T10:24:07;1.35;;;1.25;;
58071;SDS011;60383;46.626;18.866;2023-04-24T10:26:34;1.10;;;1.00;;
58071;SDS011;60383;46.626;18.866;2023-04-24T10:29:00;1.30;;;1.15;;
58071;SDS011;60383;46.626;18.866;2023-04-24T10:31:26;2.00;;;1.75;;
58071;SDS011;60383;46.626;18.866;2023-04-24T10:33:55;1.17;;;1.08;;
58071;SDS011;60383;46.626;18.866;2023-04-24T10:36:23;1.45;;;1.27;;
58071;SDS011;60383;46.626;18.866;2023-04-24T10:38:51;1.33;;;1.00;;
58071;SDS011;60383;46.626;18.866;2023-04-24T10:41:19;1.67;;;1.45;;
58071;SDS011;60383;46.626;18.866;2023-04-24T10:43:48;1.35;;;1.25;;
58071;SDS011;60383;46.626;18.866;2023-04-24T10:46:29;2.08;;;1.73;;
58071;SDS011;60383;46.626;18.866;2023-04-24T10:48:55;1.50;;;1.17;;
58071;SDS011;60383;46.626;18.866;2023-04-24T10:51:22;2.85;;;1.60;;
58071;SDS011;60383;46.626;18.866;2023-04-24T10:53:49;2.72;;;1.40;;
58071;SDS011;60383;46.626;18.866;2023-04-24T10:56:17;2.35;;;1.55;;
58071;SDS011;60383;46.626;18.866;2023-04-24T10:58:44;2.40;;;1.63;;
58071;SDS011;60383;46.626;18.866;2023-04-24T11:01:30;1.58;;;1.48;;
58071;SDS011;60383;46.626;18.866;2023-04-24T11:04:02;1.30;;;1.05;;
58071;SDS011;60383;46.626;18.866;2023-04-24T11:06:32;2.05;;;1.60;;
58071;SDS011;60383;46.626;18.866;2023-04-24T11:09:09;3.03;;;1.90;;
58071;SDS011;60383;46.626;18.866;2023-04-24T11:11:38;1.90;;;1.30;;
58071;SDS011;60383;46.626;18.866;2023-04-24T11:14:10;1.20;;;1.08;;
58071;SDS011;60383;46.626;18.866;2023-04-24T11:16:37;2.75;;;1.27;;
58071;SDS011;60383;46.626;18.866;2023-04-24T11:21:45;1.48;;;1.27;;
58071;SDS011;60383;46.626;18.866;2023-04-24T11:26:58;1.85;;;1.48;;
58071;SDS011;60383;46.626;18.866;2023-04-24T11:29:39;2.28;;;1.00;;
58071;SDS011;60383;46.626;18.866;2023-04-24T11:34:55;1.90;;;1.38;;
58071;SDS011;60383;46.626;18.866;2023-04-24T11:37:29;2.63;;;1.30;;
58071;SDS011;60383;46.626;18.866;2023-04-24T11:39:59;1.40;;;1.30;;
58071;SDS011;60383;46.626;18.866;2023-04-24T11:42:24;1.85;;;1.50;;
58071;SDS011;60383;46.626;18.866;2023-04-24T11:44:54;1.80;;;1.50;;
58071;SDS011;60383;46.626;18.866;2023-04-24T11:47:27;2.58;;;1.58;;
58071;SDS011;60383;46.626;18.866;2023-04-24T11:49:53;1.50;;;1.33;;
58071;SDS011;60383;46.626;18.866;2023-04-24T11:52:19;1.92;;;1.38;;
58071;SDS011;60383;46.626;18.866;2023-04-24T11:54:48;2.50;;;1.65;;
58071;SDS011;60383;46.626;18.866;2023-04-24T11:57:18;2.60;;;1.48;;
58071;SDS011;60383;46.626;18.866;2023-04-24T11:59:45;2.28;;;1.48;;
58071;SDS011;60383;46.626;18.866;2023-04-24T12:02:24;2.55;;;2.08;;
58071;SDS011;60383;46.626;18.866;2023-04-24T12:04:54;2.60;;;2.05;;
58071;SDS011;60383;46.626;18.866;2023-04-24T12:07:20;2.35;;;1.60;;
58071;SDS011;60383;46.626;18.866;2023-04-24T12:09:47;1.42;;;1.33;;
58071;SDS011;60383;46.626;18.866;2023-04-24T12:12:15;2.00;;;1.55;;
58071;SDS011;60383;46.626;18.866;2023-04-24T12:14:48;1.63;;;1.50;;
58071;SDS011;60383;46.626;18.866;2023-04-24T12:17:15;2.60;;;1.77;;
58071;SDS011;60383;46.626;18.866;2023-04-24T12:19:45;3.20;;;2.03;;
58071;SDS011;60383;46.626;18.866;2023-04-24T12:24:55;2.22;;;1.88;;
58071;SDS011;60383;46.626;18.866;2023-04-24T12:27:22;2.30;;;1.90;;
58071;SDS011;60383;46.626;18.866;2023-04-24T12:29:51;2.33;;;1.92;;
58071;SDS011;60383;46.626;18.866;2023-04-24T12:32:18;3.95;;;2.33;;
58071;SDS011;60383;46.626;18.866;2023-04-24T12:34:43;2.53;;;2.13;;
58071;SDS011;60383;46.626;18.866;2023-04-24T12:37:10;3.00;;;2.40;;
58071;SDS011;60383;46.626;18.866;2023-04-24T12:39:36;2.35;;;1.88;;
58071;SDS011;60383;46.626;18.866;2023-04-24T12:42:01;3.00;;;2.10;;
58071;SDS011;60383;46.626;18.866;2023-04-24T12:46:56;3.00;;;1.98;;
58071;SDS011;60383;46.626;18.866;2023-04-24T12:49:22;4.28;;;2.70;;
58071;SDS011;60383;46.626;18.866;2023-04-24T12:51:48;2.80;;;2.08;;
58071;SDS011;60383;46.626;18.866;2023-04-24T12:54:13;2.90;;;2.58;;
58071;SDS011;60383;46.626;18.866;2023-04-24T12:56:39;3.20;;;1.80;;
58071;SDS011;60383;46.626;18.866;2023-04-24T12:59:04;3.05;;;2.38;;
58071;SDS011;60383;46.626;18.866;2023-04-24T13:01:30;4.30;;;2.30;;
58071;SDS011;60383;46.626;18.866;2023-04-24T13:03:56;4.78;;;2.70;;
58071;SDS011;60383;46.626;18.866;2023-04-24T13:06:21;2.83;;;2.15;;
58071;SDS011;60383;46.626;18.866;2023-04-24T13:08:47;2.90;;;2.30;;
58071;SDS011;60383;46.626;18.866;2023-04-24T13:11:13;2.50;;;2.13;;
58071;SDS011;60383;46.626;18.866;2023-04-24T13:13:39;4.57;;;2.67;;
58071;SDS011;60383;46.626;18.866;2023-04-24T13:16:05;2.72;;;2.00;;
58071;SDS011;60383;46.626;18.866;2023-04-24T13:18:31;3.05;;;2.28;;
58071;SDS011;60383;46.626;18.866;2023-04-24T13:20:57;3.28;;;2.35;;
58071;SDS011;60383;46.626;18.866;2023-04-24T13:23:23;3.22;;;2.40;;
58071;SDS011;60383;46.626;18.866;2023-04-24T13:25:48;2.72;;;2.13;;
58071;SDS011;60383;46.626;18.866;2023-04-24T13:28:14;2.83;;;2.20;;
58071;SDS011;60383;46.626;18.866;2023-04-24T13:30:39;3.35;;;2.17;;
58071;SDS011;60383;46.626;18.866;2023-04-24T13:33:05;2.70;;;2.00;;
58071;SDS011;60383;46.626;18.866;2023-04-24T13:35:31;2.10;;;1.88;;
58071;SDS011;60383;46.626;18.866;2023-04-24T13:37:57;2.75;;;1.98;;
58071;SDS011;60383;46.626;18.866;2023-04-24T13:40:23;2.65;;;2.00;;
58071;SDS011;60383;46.626;18.866;2023-04-24T13:42:48;2.42;;;1.60;;
58071;SDS011;60383;46.626;18.866;2023-04-24T13:45:14;4.25;;;2.10;;
58071;SDS011;60383;46.626;18.866;2023-04-24T13:47:40;2.40;;;1.98;;
58071;SDS011;60383;46.626;18.866;2023-04-24T13:50:08;2.13;;;1.70;;
58071;SDS011;60383;46.626;18.866;2023-04-24T13:52:34;3.13;;;2.30;;
58071;SDS011;60383;46.626;18.866;2023-04-24T13:55:00;2.35;;;1.77;;
58071;SDS011;60383;46.626;18.866;2023-04-24T13:57:26;2.25;;;1.77;;
58071;SDS011;60383;46.626;18.866;2023-04-24T13:59:52;2.50;;;1.95;;
58071;SDS011;60383;46.626;18.866;2023-04-24T14:02:18;2.40;;;2.00;;
58071;SDS011;60383;46.626;18.866;2023-04-24T14:04:43;2.15;;;1.70;;
58071;SDS011;60383;46.626;18.866;2023-04-24T14:07:08;2.10;;;1.67;;
58071;SDS011;60383;46.626;18.866;2023-04-24T14:09:34;3.00;;;1.90;;
58071;SDS011;60383;46.626;18.866;2023-04-24T14:12:00;2.33;;;2.10;;
58071;SDS011;60383;46.626;18.866;2023-04-24T14:14:26;2.22;;;2.00;;
58071;SDS011;60383;46.626;18.866;2023-04-24T14:16:52;3.00;;;1.80;;
58071;SDS011;60383;46.626;18.866;2023-04-24T14:19:17;2.25;;;1.80;;
58071;SDS011;60383;46.626;18.866;2023-04-24T14:21:43;2.13;;;1.70;;
58071;SDS011;60383;46.626;18.866;2023-04-24T14:24:08;3.05;;;1.90;;
58071;SDS011;60383;46.626;18.866;2023-04-24T14:26:34;2.90;;;1.90;;
58071;SDS011;60383;46.626;18.866;2023-04-24T14:29:00;2.13;;;1.67;;
58071;SDS011;60383;46.626;18.866;2023-04-24T14:31:25;2.17;;;1.90;;
58071;SDS011;60383;46.626;18.866;2023-04-24T14:33:51;2.97;;;1.98;;
58071;SDS011;60383;46.626;18.866;2023-04-24T14:36:16;2.35;;;1.70;;
58071;SDS011;60383;46.626;18.866;2023-04-24T14:38:42;2.15;;;1.83;;
58071;SDS011;60383;46.626;18.866;2023-04-24T14:41:07;3.03;;;1.75;;
58071;SDS011;60383;46.626;18.866;2023-04-24T14:43:35;2.28;;;1.65;;
58071;SDS011;60383;46.626;18.866;2023-04-24T14:46:01;2.50;;;2.22;;
58071;SDS011;60383;46.626;18.866;2023-04-24T14:48:27;2.00;;;1.38;;
58071;SDS011;60383;46.626;18.866;2023-04-24T14:50:52;3.65;;;2.30;;
58071;SDS011;60383;46.626;18.866;2023-04-24T14:53:18;3.08;;;1.98;;
58071;SDS011;60383;46.626;18.866;2023-04-24T14:55:44;2.55;;;1.70;;